createdAt,value
2022-09-22T00:00:24.963Z,0.00
2022-09-22T00:01:24.974Z,0.00
2022-09-22T00:02:24.860Z,0.00
2022-09-22T00:03:24.718Z,0.00
2022-09-22T00:04:24.631Z,0.00
2022-09-22T00:05:24.548Z,0.00
2022-09-22T00:06:24.470Z,0.00
2022-09-22T00:07:24.380Z,0.00
2022-09-22T00:08:24.300Z,0.00
2022-09-22T00:09:24.221Z,0.00
2022-09-22T00:10:24.140Z,0.00
2022-09-22T00:11:24.064Z,0.00
2022-09-22T00:12:23.978Z,0.00
2022-09-22T00:13:23.887Z,0.00
2022-09-22T00:14:23.808Z,0.00
2022-09-22T00:15:23.725Z,0.00
2022-09-22T00:16:23.710Z,0.00
2022-09-22T00:17:23.556Z,0.00
2022-09-22T00:18:23.476Z,0.00
2022-09-22T00:19:23.398Z,0.00
2022-09-22T00:20:23.315Z,0.00
2022-09-22T00:21:23.228Z,0.00
2022-09-22T00:22:23.144Z,0.00
2022-09-22T00:23:23.066Z,0.00
2022-09-22T00:24:22.988Z,0.00
2022-09-22T00:25:22.898Z,0.00
2022-09-22T00:26:22.813Z,0.00
2022-09-22T00:27:22.736Z,0.00
2022-09-22T00:28:22.654Z,0.00
2022-09-22T00:29:22.568Z,0.00
2022-09-22T00:30:22.490Z,0.00
2022-09-22T00:31:22.411Z,0.00
2022-09-22T00:32:22.319Z,0.00
2022-09-22T00:33:22.237Z,0.00
2022-09-22T00:34:22.155Z,0.00
2022-09-22T00:35:22.081Z,0.00
2022-09-22T00:36:21.994Z,0.00
2022-09-22T00:37:21.906Z,0.00
2022-09-22T00:38:21.827Z,0.00
2022-09-22T00:39:21.740Z,0.00
2022-09-22T00:40:21.712Z,0.00
2022-09-22T00:41:21.589Z,0.00
2022-09-22T00:42:21.493Z,0.00
2022-09-22T00:43:21.411Z,0.00
2022-09-22T00:44:21.328Z,0.00
2022-09-22T00:45:21.242Z,0.00
2022-09-22T00:46:21.247Z,0.00
2022-09-22T00:47:21.079Z,0.00
2022-09-22T00:48:20.997Z,0.00
2022-09-22T00:49:20.915Z,0.00
2022-09-22T00:50:20.833Z,0.00
2022-09-22T00:51:20.749Z,0.00
2022-09-22T00:52:20.670Z,0.00
2022-09-22T00:53:20.580Z,0.00
2022-09-22T00:54:20.502Z,0.00
2022-09-22T00:55:20.414Z,0.00
2022-09-22T00:56:20.333Z,0.00
2022-09-22T00:57:20.256Z,0.00
2022-09-22T00:58:20.171Z,0.00
2022-09-22T00:59:20.083Z,0.00
2022-09-22T01:00:20.007Z,0.00
2022-09-22T01:01:19.964Z,0.00
2022-09-22T01:02:19.881Z,0.00
2022-09-22T01:03:19.759Z,0.00
2022-09-22T01:04:19.675Z,0.00
2022-09-22T01:05:19.588Z,0.00
2022-09-22T01:06:19.508Z,0.00
2022-09-22T01:07:19.426Z,0.00
2022-09-22T01:08:19.343Z,0.00
2022-09-22T01:09:19.259Z,0.00
2022-09-22T01:10:19.174Z,0.00
2022-09-22T01:11:19.094Z,0.00
2022-09-22T01:12:19.012Z,0.00
2022-09-22T01:13:18.931Z,0.00
2022-09-22T01:14:18.847Z,0.00
2022-09-22T01:15:18.764Z,0.00
2022-09-22T01:16:18.735Z,0.00
2022-09-22T01:17:18.603Z,0.00
2022-09-22T01:18:18.516Z,0.00
2022-09-22T01:19:18.429Z,0.00
2022-09-22T01:20:18.346Z,0.00
2022-09-22T01:21:18.268Z,0.00
2022-09-22T01:22:18.180Z,0.00
2022-09-22T01:23:18.097Z,0.00
2022-09-22T01:24:18.015Z,0.00
2022-09-22T01:25:17.932Z,0.00
2022-09-22T01:26:17.852Z,0.00
2022-09-22T01:27:17.764Z,0.00
2022-09-22T01:28:17.685Z,0.00
2022-09-22T01:29:17.603Z,0.00
2022-09-22T01:30:17.521Z,0.00
2022-09-22T01:31:17.499Z,0.00
2022-09-22T01:32:17.352Z,0.00
2022-09-22T01:33:17.270Z,0.00
2022-09-22T01:34:17.183Z,0.00
2022-09-22T01:35:17.102Z,0.00
2022-09-22T01:36:17.023Z,0.00
2022-09-22T01:37:16.934Z,0.00
2022-09-22T01:38:16.851Z,0.00
2022-09-22T01:39:16.771Z,0.00
2022-09-22T01:40:16.743Z,0.00
2022-09-22T01:41:16.606Z,0.00
2022-09-22T01:42:16.519Z,0.00
2022-09-22T01:43:16.438Z,0.00
2022-09-22T01:44:16.362Z,0.00
2022-09-22T01:45:16.272Z,0.00
2022-09-22T01:46:16.226Z,0.00
2022-09-22T01:47:16.105Z,0.00
2022-09-22T01:48:16.023Z,0.00
2022-09-22T01:49:15.940Z,0.00
2022-09-22T01:50:15.862Z,0.00
2022-09-22T01:51:15.772Z,0.00
2022-09-22T01:52:15.691Z,0.00
2022-09-22T01:53:15.605Z,0.00
2022-09-22T01:54:15.523Z,0.00
2022-09-22T01:55:15.449Z,0.00
2022-09-22T01:56:15.362Z,0.00
2022-09-22T01:57:15.280Z,0.00
2022-09-22T01:58:15.191Z,0.00
2022-09-22T01:59:15.113Z,0.00
2022-09-22T02:00:15.031Z,0.00
2022-09-22T02:01:15.180Z,0.00
2022-09-22T02:02:14.952Z,0.00
2022-09-22T02:03:14.783Z,0.00
2022-09-22T02:04:14.693Z,0.00
2022-09-22T02:05:14.610Z,0.00
2022-09-22T02:06:14.532Z,0.00
2022-09-22T02:07:14.452Z,0.00
2022-09-22T02:08:14.362Z,0.00
2022-09-22T02:09:14.282Z,0.00
2022-09-22T02:10:14.199Z,0.00
2022-09-22T02:11:14.111Z,0.00
2022-09-22T02:12:14.034Z,0.00
2022-09-22T02:13:13.946Z,0.00
2022-09-22T02:14:13.863Z,0.00
2022-09-22T02:15:13.781Z,0.00
2022-09-22T02:16:13.719Z,0.00
2022-09-22T02:17:13.615Z,0.00
2022-09-22T02:18:13.543Z,0.00
2022-09-22T02:19:13.842Z,0.00
2022-09-22T02:20:13.366Z,0.00
2022-09-22T02:21:13.284Z,0.00
2022-09-22T02:22:13.194Z,0.00
2022-09-22T02:23:13.124Z,0.00
2022-09-22T02:24:13.036Z,0.00
2022-09-22T02:25:12.946Z,0.00
2022-09-22T02:26:12.868Z,0.00
2022-09-22T02:27:12.806Z,0.00
2022-09-22T02:28:12.717Z,0.00
2022-09-22T02:29:12.614Z,0.00
2022-09-22T02:30:12.532Z,0.00
2022-09-22T02:31:20.748Z,0.00
2022-09-22T02:32:12.417Z,0.00
2022-09-22T02:33:12.283Z,0.00
2022-09-22T02:34:12.198Z,0.00
2022-09-22T02:35:12.116Z,0.00
2022-09-22T02:36:12.035Z,0.00
2022-09-22T02:37:11.948Z,0.00
2022-09-22T02:38:11.864Z,0.00
2022-09-22T02:39:11.788Z,0.00
2022-09-22T02:40:11.749Z,0.00
2022-09-22T02:41:11.619Z,0.00
2022-09-22T02:42:11.537Z,0.00
2022-09-22T02:43:11.451Z,0.00
2022-09-22T02:44:11.365Z,0.00
2022-09-22T02:45:11.288Z,0.00
2022-09-22T02:46:11.286Z,0.00
2022-09-22T02:47:11.119Z,0.00
2022-09-22T02:48:11.034Z,0.00
2022-09-22T02:49:10.956Z,0.00
2022-09-22T02:50:10.867Z,0.00
2022-09-22T02:51:10.786Z,0.00
2022-09-22T02:52:10.714Z,0.00
2022-09-22T02:53:10.622Z,0.00
2022-09-22T02:54:10.535Z,0.00
2022-09-22T02:55:10.454Z,0.00
2022-09-22T02:56:10.367Z,0.00
2022-09-22T02:57:10.284Z,0.00
2022-09-22T02:58:10.198Z,0.00
2022-09-22T02:59:10.323Z,0.00
2022-09-22T03:00:10.031Z,0.00
2022-09-22T03:01:09.995Z,0.00
2022-09-22T03:02:09.868Z,0.00
2022-09-22T03:03:09.791Z,0.00
2022-09-22T03:04:09.701Z,0.00
2022-09-22T03:05:09.688Z,0.00
2022-09-22T03:06:09.536Z,0.00
2022-09-22T03:07:09.450Z,0.00
2022-09-22T03:08:09.368Z,0.00
2022-09-22T03:09:09.288Z,0.00
2022-09-22T03:10:09.197Z,0.00
2022-09-22T03:11:09.119Z,0.00
2022-09-22T03:12:09.037Z,0.00
2022-09-22T03:13:16.282Z,0.00
2022-09-22T03:14:08.942Z,0.00
2022-09-22T03:15:08.790Z,0.00
2022-09-22T03:16:08.807Z,0.00
2022-09-22T03:17:08.615Z,0.00
2022-09-22T03:18:08.531Z,0.00
2022-09-22T03:19:08.451Z,0.00
2022-09-22T03:20:08.364Z,0.00
2022-09-22T03:21:08.282Z,0.00
2022-09-22T03:22:08.203Z,0.00
2022-09-22T03:23:08.115Z,0.00
2022-09-22T03:24:08.037Z,0.00
2022-09-22T03:25:07.954Z,0.00
2022-09-22T03:26:07.864Z,0.00
2022-09-22T03:27:07.781Z,0.00
2022-09-22T03:28:07.698Z,0.00
2022-09-22T03:29:07.617Z,0.00
2022-09-22T03:30:07.531Z,0.00
2022-09-22T03:31:07.545Z,0.00
2022-09-22T03:32:07.364Z,0.00
2022-09-22T03:33:07.284Z,0.00
2022-09-22T03:34:07.203Z,0.00
2022-09-22T03:35:07.121Z,0.00
2022-09-22T03:36:07.040Z,0.00
2022-09-22T03:37:06.949Z,0.00
2022-09-22T03:38:06.865Z,0.00
2022-09-22T03:39:06.982Z,0.00
2022-09-22T03:40:06.763Z,0.00
2022-09-22T03:41:06.617Z,0.00
2022-09-22T03:42:06.529Z,0.00
2022-09-22T03:43:06.446Z,0.00
2022-09-22T03:44:06.362Z,0.00
2022-09-22T03:45:06.280Z,0.00
2022-09-22T03:46:06.245Z,0.00
2022-09-22T03:47:06.111Z,0.00
2022-09-22T03:48:06.032Z,0.00
2022-09-22T03:49:05.949Z,0.00
2022-09-22T03:50:05.861Z,0.00
2022-09-22T03:51:05.781Z,0.00
2022-09-22T03:52:05.697Z,0.00
2022-09-22T03:53:05.611Z,0.00
2022-09-22T03:54:05.623Z,0.00
2022-09-22T03:55:05.445Z,0.00
2022-09-22T03:56:05.366Z,0.00
2022-09-22T03:57:05.277Z,0.00
2022-09-22T03:58:05.195Z,0.00
2022-09-22T03:59:05.118Z,0.00
2022-09-22T04:00:05.024Z,0.00
2022-09-22T04:01:05.058Z,0.00
2022-09-22T04:02:04.899Z,0.00
2022-09-22T04:03:04.778Z,0.00
2022-09-22T04:04:04.692Z,0.00
2022-09-22T04:05:04.607Z,0.00
2022-09-22T04:06:04.528Z,0.00
2022-09-22T04:07:07.442Z,0.00
2022-09-22T04:08:04.356Z,0.00
2022-09-22T04:09:04.276Z,0.00
2022-09-22T04:10:04.263Z,0.00
2022-09-22T04:11:04.106Z,0.00
2022-09-22T04:12:04.026Z,0.00
2022-09-22T04:13:03.942Z,0.00
2022-09-22T04:14:03.854Z,0.00
2022-09-22T04:15:03.774Z,0.00
2022-09-22T04:16:03.683Z,0.00
2022-09-22T04:17:03.650Z,0.00
2022-09-22T04:18:03.521Z,0.00
2022-09-22T04:19:03.436Z,0.00
2022-09-22T04:20:03.362Z,0.00
2022-09-22T04:21:03.272Z,0.00
2022-09-22T04:22:03.187Z,0.00
2022-09-22T04:23:03.106Z,0.00
2022-09-22T04:24:03.022Z,0.00
2022-09-22T04:25:02.932Z,0.00
2022-09-22T04:26:02.848Z,0.00
2022-09-22T04:27:19.186Z,0.00
2022-09-22T04:28:05.550Z,0.00
2022-09-22T04:29:02.597Z,0.00
2022-09-22T04:30:02.511Z,0.00
2022-09-22T04:31:02.466Z,0.00
2022-09-22T04:32:02.353Z,0.00
2022-09-22T04:33:02.267Z,0.00
2022-09-22T04:34:05.555Z,0.00
2022-09-22T04:35:02.100Z,0.00
2022-09-22T04:36:02.012Z,0.00
2022-09-22T04:37:01.929Z,0.00
2022-09-22T04:38:01.845Z,0.00
2022-09-22T04:39:01.767Z,0.00
2022-09-22T04:40:01.752Z,0.00
2022-09-22T04:41:01.597Z,0.00
2022-09-22T04:42:01.508Z,0.00
2022-09-22T04:43:01.430Z,0.00
2022-09-22T04:44:01.343Z,0.00
2022-09-22T04:45:01.264Z,0.00
2022-09-22T04:46:01.216Z,0.00
2022-09-22T04:47:01.101Z,0.00
2022-09-22T04:48:01.008Z,0.00
2022-09-22T04:49:00.927Z,0.00
2022-09-22T04:50:00.838Z,0.00
2022-09-22T04:51:00.761Z,0.00
2022-09-22T04:52:00.673Z,0.00
2022-09-22T04:53:00.594Z,0.00
2022-09-22T04:54:00.580Z,0.00
2022-09-22T04:55:00.422Z,0.00
2022-09-22T04:56:00.339Z,0.00
2022-09-22T04:57:00.256Z,0.00
2022-09-22T04:58:00.170Z,0.00
2022-09-22T04:59:00.111Z,0.00
2022-09-22T05:00:00.007Z,0.00
2022-09-22T05:00:59.995Z,0.00
2022-09-22T05:01:59.832Z,0.00
2022-09-22T05:02:59.765Z,0.00
2022-09-22T05:03:59.668Z,0.00
2022-09-22T05:04:59.586Z,0.00
2022-09-22T05:05:59.498Z,0.00
2022-09-22T05:06:59.421Z,0.00
2022-09-22T05:07:59.331Z,0.00
2022-09-22T05:08:59.259Z,0.00
2022-09-22T05:09:59.167Z,0.00
2022-09-22T05:10:59.080Z,0.00
2022-09-22T05:11:59.000Z,0.00
2022-09-22T05:12:58.920Z,0.00
2022-09-22T05:13:58.835Z,0.00
2022-09-22T05:14:58.748Z,0.00
2022-09-22T05:15:58.662Z,0.00
2022-09-22T05:16:58.635Z,0.00
2022-09-22T05:17:58.501Z,0.00
2022-09-22T05:18:58.418Z,0.00
2022-09-22T05:19:58.327Z,0.00
2022-09-22T05:20:58.243Z,0.00
2022-09-22T05:21:58.157Z,0.00
2022-09-22T05:22:58.086Z,0.00
2022-09-22T05:23:58.097Z,0.00
2022-09-22T05:24:57.909Z,0.00
2022-09-22T05:25:57.828Z,0.00
2022-09-22T05:26:57.744Z,0.00
2022-09-22T05:27:57.659Z,0.00
2022-09-22T05:28:57.584Z,0.00
2022-09-22T05:29:57.496Z,5.63
2022-09-22T05:30:57.407Z,5.63
2022-09-22T05:31:57.366Z,5.63
2022-09-22T05:32:57.245Z,5.63
2022-09-22T05:33:57.158Z,5.63
2022-09-22T05:34:57.075Z,5.63
2022-09-22T05:35:56.989Z,5.63
2022-09-22T05:36:56.906Z,5.63
2022-09-22T05:37:56.819Z,5.63
2022-09-22T05:38:56.799Z,5.63
2022-09-22T05:39:56.654Z,5.63
2022-09-22T05:40:56.570Z,5.63
2022-09-22T05:41:56.486Z,5.63
2022-09-22T05:42:56.406Z,5.63
2022-09-22T05:43:56.317Z,5.63
2022-09-22T05:44:56.248Z,5.63
2022-09-22T05:45:56.225Z,11.25
2022-09-22T05:46:56.073Z,11.25
2022-09-22T05:47:55.987Z,11.25
2022-09-22T05:48:55.910Z,11.25
2022-09-22T05:49:55.821Z,11.25
2022-09-22T05:50:55.734Z,11.25
2022-09-22T05:51:55.650Z,11.25
2022-09-22T05:52:55.571Z,11.25
2022-09-22T05:53:55.482Z,11.25
2022-09-22T05:54:55.404Z,11.25
2022-09-22T05:55:55.317Z,11.25
2022-09-22T05:56:55.239Z,11.25
2022-09-22T05:57:55.161Z,11.25
2022-09-22T05:58:55.069Z,11.25
2022-09-22T05:59:54.982Z,11.25
2022-09-22T06:00:54.928Z,16.88
2022-09-22T06:01:59.340Z,16.88
2022-09-22T06:02:54.803Z,16.88
2022-09-22T06:03:54.653Z,16.88
2022-09-22T06:04:54.572Z,16.88
2022-09-22T06:05:54.483Z,16.88
2022-09-22T06:06:54.402Z,16.88
2022-09-22T06:07:54.325Z,16.88
2022-09-22T06:08:54.233Z,16.88
2022-09-22T06:09:54.152Z,16.88
2022-09-22T06:10:54.063Z,16.88
2022-09-22T06:11:53.983Z,16.88
2022-09-22T06:12:53.896Z,16.88
2022-09-22T06:13:53.816Z,16.88
2022-09-22T06:14:53.730Z,22.50
2022-09-22T06:15:53.644Z,22.50
2022-09-22T06:16:53.566Z,22.50
2022-09-22T06:17:53.484Z,22.50
2022-09-22T06:18:53.396Z,22.50
2022-09-22T06:19:53.312Z,22.50
2022-09-22T06:20:53.227Z,22.50
2022-09-22T06:21:53.145Z,22.50
2022-09-22T06:22:53.064Z,22.50
2022-09-22T06:23:52.984Z,22.50
2022-09-22T06:24:52.892Z,28.13
2022-09-22T06:25:52.812Z,28.13
2022-09-22T06:26:52.730Z,28.13
2022-09-22T06:27:52.647Z,28.13
2022-09-22T06:28:52.566Z,28.13
2022-09-22T06:29:52.479Z,28.13
2022-09-22T06:30:52.396Z,28.13
2022-09-22T06:31:52.331Z,28.13
2022-09-22T06:32:52.229Z,28.13
2022-09-22T06:33:52.147Z,33.75
2022-09-22T06:34:52.057Z,33.75
2022-09-22T06:35:51.985Z,33.75
2022-09-22T06:36:51.891Z,28.13
2022-09-22T06:37:51.814Z,28.13
2022-09-22T06:38:51.729Z,28.13
2022-09-22T06:39:51.646Z,28.13
2022-09-22T06:40:51.617Z,28.13
2022-09-22T06:41:51.477Z,33.75
2022-09-22T06:42:51.399Z,33.75
2022-09-22T06:43:51.314Z,33.75
2022-09-22T06:44:51.231Z,39.38
2022-09-22T06:45:51.192Z,39.38
2022-09-22T06:46:51.060Z,39.38
2022-09-22T06:47:50.980Z,39.38
2022-09-22T06:48:50.896Z,39.38
2022-09-22T06:49:50.809Z,33.75
2022-09-22T06:50:50.730Z,33.75
2022-09-22T06:51:50.647Z,33.75
2022-09-22T06:52:50.569Z,39.38
2022-09-22T06:53:52.051Z,39.38
2022-09-22T06:54:53.024Z,45.00
2022-09-22T06:55:52.407Z,45.00
2022-09-22T06:56:50.230Z,50.63
2022-09-22T06:57:50.149Z,50.63
2022-09-22T06:59:08.736Z,56.25
2022-09-22T06:59:49.982Z,67.50
2022-09-22T07:00:49.963Z,73.13
2022-09-22T07:01:49.957Z,67.50
2022-09-22T07:02:49.737Z,61.88
2022-09-22T07:03:49.648Z,61.88
2022-09-22T07:04:49.579Z,61.88
2022-09-22T07:05:49.489Z,73.13
2022-09-22T07:06:49.397Z,84.38
2022-09-22T07:07:49.319Z,84.38
2022-09-22T07:08:49.238Z,84.38
2022-09-22T07:09:49.155Z,78.75
2022-09-22T07:10:49.067Z,84.38
2022-09-22T07:11:48.986Z,84.38
2022-09-22T07:12:48.903Z,90.00
2022-09-22T07:13:48.865Z,84.38
2022-09-22T07:14:48.736Z,90.00
2022-09-22T07:15:48.652Z,95.63
2022-09-22T07:16:48.576Z,95.63
2022-09-22T07:17:48.489Z,101.25
2022-09-22T07:18:48.414Z,106.88
2022-09-22T07:19:48.333Z,106.88
2022-09-22T07:20:48.240Z,112.50
2022-09-22T07:21:48.158Z,101.25
2022-09-22T07:22:48.076Z,67.50
2022-09-22T07:23:48.004Z,78.75
2022-09-22T07:24:47.920Z,118.13
2022-09-22T07:25:47.830Z,67.50
2022-09-22T07:26:47.744Z,112.50
2022-09-22T07:27:47.663Z,95.63
2022-09-22T07:28:47.582Z,123.75
2022-09-22T07:29:48.035Z,118.13
2022-09-22T07:30:47.631Z,129.38
2022-09-22T07:31:48.046Z,129.38
2022-09-22T07:32:47.872Z,129.38
2022-09-22T07:33:47.780Z,135.00
2022-09-22T07:34:47.724Z,135.00
2022-09-22T07:35:47.287Z,140.63
2022-09-22T07:36:46.928Z,140.63
2022-09-22T07:37:46.842Z,146.25
2022-09-22T07:38:46.759Z,146.25
2022-09-22T07:39:46.678Z,146.25
2022-09-22T07:40:46.730Z,151.88
2022-09-22T07:41:46.520Z,151.88
2022-09-22T07:42:46.434Z,157.50
2022-09-22T07:43:46.353Z,157.50
2022-09-22T07:44:46.272Z,157.50
2022-09-22T07:45:46.193Z,163.13
2022-09-22T07:46:46.163Z,163.13
2022-09-22T07:47:46.027Z,163.13
2022-09-22T07:48:45.946Z,168.75
2022-09-22T07:49:45.867Z,168.75
2022-09-22T07:50:45.780Z,168.75
2022-09-22T07:51:45.703Z,174.38
2022-09-22T07:52:45.620Z,174.38
2022-09-22T07:53:45.543Z,174.38
2022-09-22T07:54:45.458Z,180.00
2022-09-22T07:55:45.380Z,180.00
2022-09-22T07:56:45.300Z,180.00
2022-09-22T07:57:45.216Z,180.00
2022-09-22T07:58:45.136Z,185.63
2022-09-22T07:59:45.059Z,185.63
2022-09-22T08:00:45.006Z,185.63
2022-09-22T08:01:44.936Z,185.63
2022-09-22T08:02:44.815Z,191.25
2022-09-22T08:03:44.776Z,191.25
2022-09-22T08:04:44.650Z,191.25
2022-09-22T08:05:44.572Z,191.25
2022-09-22T08:06:44.489Z,196.88
2022-09-22T08:07:44.409Z,196.88
2022-09-22T08:08:44.332Z,196.88
2022-09-22T08:09:44.250Z,196.88
2022-09-22T08:10:44.168Z,196.88
2022-09-22T08:11:44.092Z,202.50
2022-09-22T08:12:44.009Z,202.50
2022-09-22T08:13:43.931Z,202.50
2022-09-22T08:14:43.856Z,202.50
2022-09-22T08:15:43.824Z,202.50
2022-09-22T08:16:43.690Z,208.13
2022-09-22T08:17:43.611Z,208.13
2022-09-22T08:18:43.530Z,208.13
2022-09-22T08:19:43.453Z,208.13
2022-09-22T08:20:45.023Z,208.13
2022-09-22T08:21:48.354Z,208.13
2022-09-22T08:22:43.212Z,213.75
2022-09-22T08:23:43.136Z,213.75
2022-09-22T08:24:43.051Z,213.75
2022-09-22T08:25:42.976Z,213.75
2022-09-22T08:26:47.490Z,213.75
2022-09-22T08:27:42.817Z,213.75
2022-09-22T08:28:42.738Z,213.75
2022-09-22T08:29:42.657Z,213.75
2022-09-22T08:30:42.604Z,213.75
2022-09-22T08:31:42.520Z,213.75
2022-09-22T08:32:42.419Z,213.75
2022-09-22T08:33:42.346Z,213.75
2022-09-22T08:34:42.260Z,213.75
2022-09-22T08:35:42.180Z,213.75
2022-09-22T08:36:42.102Z,213.75
2022-09-22T08:37:42.024Z,219.38
2022-09-22T08:38:41.942Z,219.38
2022-09-22T08:39:41.865Z,219.38
2022-09-22T08:40:41.819Z,219.38
2022-09-22T08:41:41.710Z,219.38
2022-09-22T08:42:41.635Z,219.38
2022-09-22T08:43:41.557Z,219.38
2022-09-22T08:44:41.470Z,219.38
2022-09-22T08:45:41.390Z,219.38
2022-09-22T08:46:41.476Z,219.38
2022-09-22T08:47:41.246Z,219.38
2022-09-22T08:48:41.156Z,219.38
2022-09-22T08:49:41.077Z,219.38
2022-09-22T08:50:41.081Z,219.38
2022-09-22T08:51:40.925Z,219.38
2022-09-22T08:52:40.841Z,219.38
2022-09-22T08:53:40.765Z,219.38
2022-09-22T08:54:40.687Z,219.38
2022-09-22T08:55:40.613Z,219.38
2022-09-22T08:56:40.528Z,219.38
2022-09-22T08:57:40.449Z,219.38
2022-09-22T08:58:40.369Z,219.38
2022-09-22T08:59:40.293Z,219.38
2022-09-22T09:00:42.751Z,219.38
2022-09-22T09:01:40.178Z,219.38
2022-09-22T09:02:40.159Z,219.38
2022-09-22T09:03:39.983Z,219.38
2022-09-22T09:04:39.905Z,219.38
2022-09-22T09:05:39.831Z,219.38
2022-09-22T09:06:39.773Z,219.38
2022-09-22T09:07:39.669Z,219.38
2022-09-22T09:08:39.590Z,219.38
2022-09-22T09:09:39.519Z,219.38
2022-09-22T09:10:39.437Z,219.38
2022-09-22T09:11:39.357Z,219.38
2022-09-22T09:12:39.279Z,219.38
2022-09-22T09:13:39.203Z,219.38
2022-09-22T09:14:39.123Z,219.38
2022-09-22T09:15:39.085Z,219.38
2022-09-22T09:16:38.971Z,213.75
2022-09-22T09:17:38.890Z,219.38
2022-09-22T09:18:38.813Z,213.75
2022-09-22T09:19:38.740Z,219.38
2022-09-22T09:20:38.656Z,219.38
2022-09-22T09:21:38.580Z,219.38
2022-09-22T09:22:38.503Z,219.38
2022-09-22T09:25:38.277Z,219.38
2022-09-22T09:26:38.192Z,219.38
2022-09-22T09:27:38.119Z,219.38
2022-09-22T09:28:38.041Z,219.38
2022-09-22T09:29:37.964Z,219.38
2022-09-22T09:30:37.887Z,219.38
2022-09-22T09:31:37.811Z,213.75
2022-09-22T09:32:37.729Z,219.38
2022-09-22T09:33:37.652Z,219.38
2022-09-22T09:34:37.577Z,219.38
2022-09-22T09:35:41.200Z,219.38
2022-09-22T09:36:37.420Z,219.38
2022-09-22T09:37:37.343Z,219.38
2022-09-22T09:38:37.272Z,219.38
2022-09-22T09:39:37.195Z,219.38
2022-09-22T09:40:37.157Z,219.38
2022-09-22T09:41:37.036Z,219.38
2022-09-22T09:42:37.018Z,219.38
2022-09-22T09:43:36.887Z,219.38
2022-09-22T09:44:36.809Z,219.38
2022-09-22T09:45:36.729Z,219.38
2022-09-22T09:46:36.700Z,219.38
2022-09-22T09:47:36.580Z,219.38
2022-09-22T09:48:36.502Z,219.38
2022-09-22T09:49:36.428Z,219.38
2022-09-22T09:50:36.343Z,219.38
2022-09-22T09:51:39.810Z,219.38
2022-09-22T09:52:36.195Z,219.38
2022-09-22T09:53:41.171Z,219.38
2022-09-22T09:54:36.038Z,219.38
2022-09-22T09:55:35.962Z,219.38
2022-09-22T09:56:35.898Z,219.38
2022-09-22T09:57:35.813Z,219.38
2022-09-22T09:58:35.733Z,219.38
2022-09-22T09:59:35.658Z,225.00
2022-09-22T10:00:35.582Z,225.00
2022-09-22T10:01:35.568Z,225.00
2022-09-22T10:02:35.424Z,225.00
2022-09-22T10:03:35.391Z,225.00
2022-09-22T10:04:35.282Z,225.00
2022-09-22T10:05:35.198Z,225.00
2022-09-22T10:06:35.124Z,225.00
2022-09-22T10:07:35.053Z,225.00
2022-09-22T10:08:34.971Z,225.00
2022-09-22T10:09:34.894Z,225.00
2022-09-22T10:10:34.941Z,225.00
2022-09-22T10:11:34.744Z,225.00
2022-09-22T10:12:34.672Z,225.00
2022-09-22T10:13:34.599Z,225.00
2022-09-22T10:14:34.512Z,225.00
2022-09-22T10:15:34.493Z,225.00
2022-09-22T10:16:34.361Z,225.00
2022-09-22T10:17:34.302Z,219.38
2022-09-22T10:18:34.211Z,219.38
2022-09-22T10:19:34.137Z,225.00
2022-09-22T10:20:34.092Z,225.00
2022-09-22T10:21:33.985Z,225.00
2022-09-22T10:22:39.103Z,225.00
2022-09-22T10:23:33.830Z,225.00
2022-09-22T10:24:33.757Z,225.00
2022-09-22T10:25:33.677Z,230.63
2022-09-22T10:26:33.605Z,225.00
2022-09-22T10:27:33.530Z,225.00
2022-09-22T10:28:33.453Z,39.38
2022-09-22T10:29:33.374Z,225.00
2022-09-22T10:30:33.304Z,225.00
2022-09-22T10:31:33.286Z,225.00
2022-09-22T10:32:33.152Z,225.00
2022-09-22T10:33:33.075Z,225.00
2022-09-22T10:34:33.066Z,225.00
2022-09-22T10:35:32.924Z,225.00
2022-09-22T10:36:32.853Z,225.00
2022-09-22T10:37:32.778Z,219.38
2022-09-22T10:38:32.722Z,219.38
2022-09-22T10:39:32.620Z,219.38
2022-09-22T10:40:32.650Z,219.38
2022-09-22T10:41:32.470Z,219.38
2022-09-22T10:42:32.405Z,225.00
2022-09-22T10:43:32.326Z,225.00
2022-09-22T10:44:38.979Z,225.00
2022-09-22T10:45:32.170Z,225.00
2022-09-22T10:46:32.155Z,230.63
2022-09-22T10:47:32.016Z,236.25
2022-09-22T10:48:31.948Z,151.88
2022-09-22T10:49:31.868Z,78.75
2022-09-22T10:50:31.790Z,56.25
2022-09-22T10:51:31.721Z,213.75
2022-09-22T10:52:31.642Z,247.50
2022-09-22T10:53:31.568Z,230.63
2022-09-22T10:54:31.510Z,253.13
2022-09-22T10:55:31.415Z,253.13
2022-09-22T10:56:31.351Z,146.25
2022-09-22T10:57:31.266Z,61.88
2022-09-22T10:58:31.195Z,112.50
2022-09-22T10:59:31.113Z,247.50
2022-09-22T11:00:33.064Z,247.50
2022-09-22T11:01:31.016Z,230.63
2022-09-22T11:02:30.888Z,56.25
2022-09-22T11:03:30.813Z,56.25
2022-09-22T11:04:30.815Z,50.63
2022-09-22T11:05:30.668Z,50.63
2022-09-22T11:06:30.604Z,50.63
2022-09-22T11:07:30.511Z,50.63
2022-09-22T11:08:30.434Z,50.63
2022-09-22T11:09:30.464Z,50.63
2022-09-22T11:10:30.291Z,56.25
2022-09-22T11:11:30.209Z,78.75
2022-09-22T11:12:30.133Z,225.00
2022-09-22T11:13:30.058Z,241.88
2022-09-22T11:14:29.987Z,236.25
2022-09-22T11:15:29.948Z,230.63
2022-09-22T11:16:29.834Z,225.00
2022-09-22T11:17:29.756Z,123.75
2022-09-22T11:18:29.689Z,225.00
2022-09-22T11:19:29.606Z,225.00
2022-09-22T11:20:29.535Z,219.38
2022-09-22T11:21:29.459Z,225.00
2022-09-22T11:22:29.380Z,219.38
2022-09-22T11:23:29.304Z,225.00
2022-09-22T11:24:29.228Z,225.00
2022-09-22T11:25:29.150Z,151.88
2022-09-22T11:26:29.083Z,61.88
2022-09-22T11:27:29.008Z,56.25
2022-09-22T11:28:28.926Z,180.00
2022-09-22T11:29:28.854Z,236.25
2022-09-22T11:30:28.783Z,236.25
2022-09-22T11:31:28.703Z,230.63
2022-09-22T11:32:28.630Z,230.63
2022-09-22T11:33:28.554Z,146.25
2022-09-22T11:34:28.479Z,230.63
2022-09-22T11:35:28.399Z,219.38
2022-09-22T11:36:28.327Z,123.75
2022-09-22T11:37:28.249Z,174.38
2022-09-22T11:38:28.180Z,191.25
2022-09-22T11:39:28.103Z,106.88
2022-09-22T11:40:28.121Z,163.13
2022-09-22T11:41:27.951Z,78.75
2022-09-22T11:42:27.877Z,61.88
2022-09-22T11:43:27.804Z,56.25
2022-09-22T11:44:27.730Z,50.63
2022-09-22T11:45:27.649Z,50.63
2022-09-22T11:46:27.659Z,50.63
2022-09-22T11:47:27.497Z,45.00
2022-09-22T11:48:27.429Z,45.00
2022-09-22T11:49:27.366Z,50.63
2022-09-22T11:50:27.296Z,45.00
2022-09-22T11:51:27.199Z,50.63
2022-09-22T11:52:27.130Z,135.00
2022-09-22T11:53:27.051Z,196.88
2022-09-22T11:54:26.981Z,202.50
2022-09-22T11:55:26.896Z,202.50
2022-09-22T11:56:26.827Z,202.50
2022-09-22T11:57:26.749Z,208.13
2022-09-22T11:58:26.672Z,208.13
2022-09-22T11:59:26.598Z,202.50
2022-09-22T12:00:26.525Z,208.13
2022-09-22T12:01:26.448Z,208.13
2022-09-22T12:02:26.505Z,208.13
2022-09-22T12:03:26.408Z,196.88
2022-09-22T12:04:26.225Z,208.13
2022-09-22T12:05:26.155Z,208.13
2022-09-22T12:06:26.078Z,208.13
2022-09-22T12:07:25.996Z,208.13
2022-09-22T12:08:25.938Z,208.13
2022-09-22T12:09:25.851Z,208.13
2022-09-22T12:10:25.776Z,208.13
2022-09-22T12:11:25.702Z,213.75
2022-09-22T12:12:25.628Z,213.75
2022-09-22T12:13:25.548Z,213.75
2022-09-22T12:14:25.473Z,208.13
2022-09-22T12:15:25.398Z,208.13
2022-09-22T12:16:25.323Z,208.13
2022-09-22T12:17:25.250Z,202.50
2022-09-22T12:18:25.173Z,202.50
2022-09-22T12:19:25.102Z,202.50
2022-09-22T12:20:25.026Z,202.50
2022-09-22T12:21:24.947Z,208.13
2022-09-22T12:22:24.880Z,208.13
2022-09-22T12:23:24.802Z,208.13
2022-09-22T12:24:24.730Z,208.13
2022-09-22T12:25:44.661Z,213.75
2022-09-22T12:26:24.586Z,213.75
2022-09-22T12:27:24.505Z,213.75
2022-09-22T12:28:24.436Z,213.75
2022-09-22T12:29:24.357Z,213.75
2022-09-22T12:30:24.340Z,208.13
2022-09-22T12:32:24.135Z,208.13
2022-09-22T12:33:24.056Z,208.13
2022-09-22T12:34:23.986Z,202.50
2022-09-22T12:35:27.337Z,185.63
2022-09-22T12:36:23.835Z,191.25
2022-09-22T12:37:23.761Z,208.13
2022-09-22T12:38:23.690Z,202.50
2022-09-22T12:39:23.612Z,196.88
2022-09-22T12:40:23.570Z,196.88
2022-09-22T12:41:23.461Z,196.88
2022-09-22T12:42:23.392Z,196.88
2022-09-22T12:43:23.314Z,196.88
2022-09-22T12:44:23.244Z,196.88
2022-09-22T12:45:23.166Z,196.88
2022-09-22T12:46:23.124Z,202.50
2022-09-22T12:47:23.019Z,202.50
2022-09-22T12:48:22.947Z,202.50
2022-09-22T12:49:22.871Z,202.50
2022-09-22T12:50:22.800Z,202.50
2022-09-22T12:51:22.726Z,202.50
2022-09-22T12:52:22.650Z,202.50
2022-09-22T12:53:22.573Z,202.50
2022-09-22T12:54:22.508Z,202.50
2022-09-22T12:55:22.425Z,202.50